sensor_id;sensor_type;location;lat;lon;timestamp;temperature;humidity
50989;DHT22;37008;52.210;21.112;2023-12-14T00:00:19;2.60;99.90
50989;DHT22;37008;52.210;21.112;2023-12-14T00:02:45;2.60;99.90
50989;DHT22;37008;52.210;21.112;2023-12-14T00:05:10;2.50;99.90
50989;DHT22;37008;52.210;21.112;2023-12-14T00:07:36;2.60;99.90
50989;DHT22;37008;52.210;21.112;2023-12-14T00:10:02;2.60;99.90
50989;DHT22;37008;52.210;21.112;2023-12-14T00:12:29;2.50;99.90
50989;DHT22;37008;52.210;21.112;2023-12-14T00:14:54;2.50;99.90
50989;DHT22;37008;52.210;21.112;2023-12-14T00:17:20;2.50;99.90
50989;DHT22;37008;52.210;21.112;2023-12-14T00:19:45;2.50;99.90
50989;DHT22;37008;52.210;21.112;2023-12-14T00:22:11;2.50;99.90
50989;DHT22;37008;52.210;21.112;2023-12-14T00:24:37;2.50;99.90
50989;DHT22;37008;52.210;21.112;2023-12-14T00:27:02;2.70;99.90
50989;DHT22;37008;52.210;21.112;2023-12-14T00:29:28;2.50;99.90
50989;DHT22;37008;52.210;21.112;2023-12-14T00:31:54;2.50;99.90
50989;DHT22;37008;52.210;21.112;2023-12-14T00:34:19;2.50;99.90
50989;DHT22;37008;52.210;21.112;2023-12-14T00:36:45;2.40;99.90
50989;DHT22;37008;52.210;21.112;2023-12-14T00:39:10;2.40;99.90
50989;DHT22;37008;52.210;21.112;2023-12-14T00:41:36;2.40;99.90
50989;DHT22;37008;52.210;21.112;2023-12-14T00:44:02;2.40;99.90
50989;DHT22;37008;52.210;21.112;2023-12-14T00:46:28;2.40;99.90
50989;DHT22;37008;52.210;21.112;2023-12-14T00:48:53;2.40;99.90
50989;DHT22;37008;52.210;21.112;2023-12-14T00:51:19;2.40;99.90
50989;DHT22;37008;52.210;21.112;2023-12-14T00:53:44;2.30;99.90
50989;DHT22;37008;52.210;21.112;2023-12-14T00:56:10;2.30;99.90
50989;DHT22;37008;52.210;21.112;2023-12-14T00:58:36;2.30;99.90
50989;DHT22;37008;52.210;21.112;2023-12-14T01:01:01;2.30;99.90
50989;DHT22;37008;52.210;21.112;2023-12-14T01:03:27;2.30;99.90
50989;DHT22;37008;52.210;21.112;2023-12-14T01:05:53;2.30;99.90
50989;DHT22;37008;52.210;21.112;2023-12-14T01:08:18;2.20;99.90
50989;DHT22;37008;52.210;21.112;2023-12-14T01:10:44;2.20;99.90
50989;DHT22;37008;52.210;21.112;2023-12-14T01:13:10;2.30;99.90
50989;DHT22;37008;52.210;21.112;2023-12-14T01:15:35;2.30;99.90
50989;DHT22;37008;52.210;21.112;2023-12-14T01:18:01;2.30;99.90
50989;DHT22;37008;52.210;21.112;2023-12-14T01:20:27;2.30;99.90
50989;DHT22;37008;52.210;21.112;2023-12-14T01:22:52;2.30;99.90
50989;DHT22;37008;52.210;21.112;2023-12-14T01:25:18;2.30;99.90
50989;DHT22;37008;52.210;21.112;2023-12-14T01:27:44;2.30;99.90
50989;DHT22;37008;52.210;21.112;2023-12-14T01:30:10;2.20;99.90
50989;DHT22;37008;52.210;21.112;2023-12-14T01:32:35;2.20;99.90
50989;DHT22;37008;52.210;21.112;2023-12-14T01:35:01;2.20;99.90
50989;DHT22;37008;52.210;21.112;2023-12-14T01:37:27;2.20;99.90
50989;DHT22;37008;52.210;21.112;2023-12-14T01:39:53;2.20;99.90
50989;DHT22;37008;52.210;21.112;2023-12-14T01:42:18;2.20;99.90
50989;DHT22;37008;52.210;21.112;2023-12-14T01:44:44;2.20;99.90
50989;DHT22;37008;52.210;21.112;2023-12-14T01:47:10;2.20;99.90
50989;DHT22;37008;52.210;21.112;2023-12-14T01:49:35;2.20;99.90
50989;DHT22;37008;52.210;21.112;2023-12-14T01:52:01;2.20;99.90
50989;DHT22;37008;52.210;21.112;2023-12-14T01:54:26;2.20;99.90
50989;DHT22;37008;52.210;21.112;2023-12-14T01:56:52;2.20;99.90
50989;DHT22;37008;52.210;21.112;2023-12-14T01:59:19;2.20;99.90
50989;DHT22;37008;52.210;21.112;2023-12-14T02:01:46;2.20;99.90
50989;DHT22;37008;52.210;21.112;2023-12-14T02:04:13;2.20;99.90
50989;DHT22;37008;52.210;21.112;2023-12-14T02:06:40;2.20;99.90
50989;DHT22;37008;52.210;21.112;2023-12-14T02:09:06;2.20;99.90
50989;DHT22;37008;52.210;21.112;2023-12-14T02:11:31;2.20;99.90
50989;DHT22;37008;52.210;21.112;2023-12-14T02:13:57;2.10;99.90
50989;DHT22;37008;52.210;21.112;2023-12-14T02:16:23;2.10;99.90
50989;DHT22;37008;52.210;21.112;2023-12-14T02:18:49;2.10;99.90
50989;DHT22;37008;52.210;21.112;2023-12-14T02:21:15;2.10;99.90
50989;DHT22;37008;52.210;21.112;2023-12-14T02:23:44;2.10;99.90
50989;DHT22;37008;52.210;21.112;2023-12-14T02:26:11;2.10;99.90
50989;DHT22;37008;52.210;21.112;2023-12-14T02:28:37;2.10;99.90
50989;DHT22;37008;52.210;21.112;2023-12-14T02:31:02;2.10;99.90
50989;DHT22;37008;52.210;21.112;2023-12-14T02:33:28;2.10;99.90
50989;DHT22;37008;52.210;21.112;2023-12-14T02:35:54;2.10;99.90
50989;DHT22;37008;52.210;21.112;2023-12-14T02:38:19;2.20;99.90
50989;DHT22;37008;52.210;21.112;2023-12-14T02:40:45;2.20;99.90
50989;DHT22;37008;52.210;21.112;2023-12-14T02:43:10;2.20;99.90
50989;DHT22;37008;52.210;21.112;2023-12-14T02:45:36;2.20;99.90
50989;DHT22;37008;52.210;21.112;2023-12-14T02:48:02;2.20;99.90
50989;DHT22;37008;52.210;21.112;2023-12-14T02:50:27;2.20;99.90
50989;DHT22;37008;52.210;21.112;2023-12-14T02:52:53;2.20;99.90
50989;DHT22;37008;52.210;21.112;2023-12-14T02:55:18;2.20;99.90
50989;DHT22;37008;52.210;21.112;2023-12-14T02:57:44;2.20;99.90
50989;DHT22;37008;52.210;21.112;2023-12-14T03:00:10;2.20;99.90
50989;DHT22;37008;52.210;21.112;2023-12-14T03:02:37;2.20;99.90
50989;DHT22;37008;52.210;21.112;2023-12-14T03:05:03;2.20;99.90
50989;DHT22;37008;52.210;21.112;2023-12-14T03:07:28;2.20;99.90
50989;DHT22;37008;52.210;21.112;2023-12-14T03:09:54;2.20;99.90
50989;DHT22;37008;52.210;21.112;2023-12-14T03:12:19;2.20;99.90
50989;DHT22;37008;52.210;21.112;2023-12-14T03:14:45;2.20;99.90
50989;DHT22;37008;52.210;21.112;2023-12-14T03:17:11;2.20;99.90
50989;DHT22;37008;52.210;21.112;2023-12-14T03:19:41;2.20;99.90
50989;DHT22;37008;52.210;21.112;2023-12-14T03:22:07;2.20;99.90
50989;DHT22;37008;52.210;21.112;2023-12-14T03:24:34;2.20;99.90
50989;DHT22;37008;52.210;21.112;2023-12-14T03:27:00;2.20;99.90
50989;DHT22;37008;52.210;21.112;2023-12-14T03:29:27;2.20;99.90
50989;DHT22;37008;52.210;21.112;2023-12-14T03:31:52;2.30;99.90
50989;DHT22;37008;52.210;21.112;2023-12-14T03:34:18;2.20;99.90
50989;DHT22;37008;52.210;21.112;2023-12-14T03:36:43;2.20;99.90
50989;DHT22;37008;52.210;21.112;2023-12-14T03:39:09;2.30;99.90
50989;DHT22;37008;52.210;21.112;2023-12-14T03:41:35;2.30;99.90
50989;DHT22;37008;52.210;21.112;2023-12-14T03:44:01;2.30;99.90
50989;DHT22;37008;52.210;21.112;2023-12-14T03:46:26;2.30;99.90
50989;DHT22;37008;52.210;21.112;2023-12-14T03:48:52;2.20;99.90
50989;DHT22;37008;52.210;21.112;2023-12-14T03:51:19;2.20;99.90
50989;DHT22;37008;52.210;21.112;2023-12-14T03:53:44;2.20;99.90
50989;DHT22;37008;52.210;21.112;2023-12-14T03:56:10;2.20;99.90
50989;DHT22;37008;52.210;21.112;2023-12-14T03:58:36;2.10;99.90
50989;DHT22;37008;52.210;21.112;2023-12-14T04:01:02;2.10;99.90
50989;DHT22;37008;52.210;21.112;2023-12-14T04:03:27;2.10;99.90
50989;DHT22;37008;52.210;21.112;2023-12-14T04:05:54;2.10;99.90
50989;DHT22;37008;52.210;21.112;2023-12-14T04:08:20;2.10;99.90
50989;DHT22;37008;52.210;21.112;2023-12-14T04:10:45;2.10;99.90
50989;DHT22;37008;52.210;21.112;2023-12-14T04:13:11;2.10;99.90
50989;DHT22;37008;52.210;21.112;2023-12-14T04:15:37;2.10;99.90
50989;DHT22;37008;52.210;21.112;2023-12-14T04:18:02;2.10;99.90
50989;DHT22;37008;52.210;21.112;2023-12-14T04:20:28;2.10;99.90
50989;DHT22;37008;52.210;21.112;2023-12-14T04:22:54;2.10;99.90
50989;DHT22;37008;52.210;21.112;2023-12-14T04:25:20;2.10;99.90
50989;DHT22;37008;52.210;21.112;2023-12-14T04:27:45;2.10;99.90
50989;DHT22;37008;52.210;21.112;2023-12-14T04:30:11;2.10;99.90
50989;DHT22;37008;52.210;21.112;2023-12-14T04:32:40;2.10;99.90
50989;DHT22;37008;52.210;21.112;2023-12-14T04:35:06;2.10;99.90
50989;DHT22;37008;52.210;21.112;2023-12-14T04:37:32;2.10;99.90
50989;DHT22;37008;52.210;21.112;2023-12-14T04:39:58;2.10;99.90
50989;DHT22;37008;52.210;21.112;2023-12-14T04:42:23;2.10;99.90
50989;DHT22;37008;52.210;21.112;2023-12-14T04:44:49;2.10;99.90
50989;DHT22;37008;52.210;21.112;2023-12-14T04:47:14;2.20;99.90
50989;DHT22;37008;52.210;21.112;2023-12-14T04:49:40;2.20;99.90
50989;DHT22;37008;52.210;21.112;2023-12-14T04:52:06;2.20;99.90
50989;DHT22;37008;52.210;21.112;2023-12-14T04:54:32;2.20;99.90
50989;DHT22;37008;52.210;21.112;2023-12-14T04:56:58;2.10;99.90
50989;DHT22;37008;52.210;21.112;2023-12-14T04:59:23;2.10;99.90
50989;DHT22;37008;52.210;21.112;2023-12-14T05:01:49;2.10;99.90
50989;DHT22;37008;52.210;21.112;2023-12-14T05:04:15;2.10;99.90
50989;DHT22;37008;52.210;21.112;2023-12-14T05:06:41;2.10;99.90
50989;DHT22;37008;52.210;21.112;2023-12-14T05:09:06;2.10;99.90
50989;DHT22;37008;52.210;21.112;2023-12-14T05:11:32;2.10;99.90
50989;DHT22;37008;52.210;21.112;2023-12-14T05:13:58;2.10;99.90
50989;DHT22;37008;52.210;21.112;2023-12-14T05:16:23;2.20;99.90
50989;DHT22;37008;52.210;21.112;2023-12-14T05:18:55;2.10;99.90
50989;DHT22;37008;52.210;21.112;2023-12-14T05:21:22;2.10;99.90
50989;DHT22;37008;52.210;21.112;2023-12-14T05:23:48;2.10;99.90
50989;DHT22;37008;52.210;21.112;2023-12-14T05:26:13;2.20;99.90
50989;DHT22;37008;52.210;21.112;2023-12-14T05:28:40;2.10;99.90
50989;DHT22;37008;52.210;21.112;2023-12-14T05:31:06;2.10;99.90
50989;DHT22;37008;52.210;21.112;2023-12-14T05:33:31;2.20;99.90
50989;DHT22;37008;52.210;21.112;2023-12-14T05:35:59;2.20;99.90
50989;DHT22;37008;52.210;21.112;2023-12-14T05:38:24;2.20;99.90
50989;DHT22;37008;52.210;21.112;2023-12-14T05:40:50;2.20;99.90
50989;DHT22;37008;52.210;21.112;2023-12-14T05:43:16;2.20;99.90
50989;DHT22;37008;52.210;21.112;2023-12-14T05:45:41;2.20;99.90
50989;DHT22;37008;52.210;21.112;2023-12-14T05:48:07;2.20;99.90
50989;DHT22;37008;52.210;21.112;2023-12-14T05:50:33;2.20;99.90
50989;DHT22;37008;52.210;21.112;2023-12-14T05:52:58;2.20;99.90
50989;DHT22;37008;52.210;21.112;2023-12-14T05:55:24;2.20;99.90
50989;DHT22;37008;52.210;21.112;2023-12-14T05:57:49;2.20;99.90
50989;DHT22;37008;52.210;21.112;2023-12-14T06:00:15;2.20;99.90
50989;DHT22;37008;52.210;21.112;2023-12-14T06:02:41;2.20;99.90
50989;DHT22;37008;52.210;21.112;2023-12-14T06:05:07;2.20;99.90
50989;DHT22;37008;52.210;21.112;2023-12-14T06:07:33;2.20;99.90
50989;DHT22;37008;52.210;21.112;2023-12-14T06:09:59;2.10;99.90
50989;DHT22;37008;52.210;21.112;2023-12-14T06:12:26;2.20;99.90
50989;DHT22;37008;52.210;21.112;2023-12-14T06:14:52;2.20;99.90
50989;DHT22;37008;52.210;21.112;2023-12-14T06:17:18;2.20;99.90
50989;DHT22;37008;52.210;21.112;2023-12-14T06:19:43;2.20;99.90
50989;DHT22;37008;52.210;21.112;2023-12-14T06:22:09;2.20;99.90
50989;DHT22;37008;52.210;21.112;2023-12-14T06:24:35;2.20;99.90
50989;DHT22;37008;52.210;21.112;2023-12-14T06:27:00;2.30;99.90
50989;DHT22;37008;52.210;21.112;2023-12-14T06:29:26;2.20;99.90
50989;DHT22;37008;52.210;21.112;2023-12-14T06:31:52;2.20;99.90
50989;DHT22;37008;52.210;21.112;2023-12-14T06:34:17;2.20;99.90
50989;DHT22;37008;52.210;21.112;2023-12-14T06:36:44;2.20;99.90
50989;DHT22;37008;52.210;21.112;2023-12-14T06:39:10;2.20;99.90
50989;DHT22;37008;52.210;21.112;2023-12-14T06:41:36;2.10;99.90
50989;DHT22;37008;52.210;21.112;2023-12-14T06:44:02;2.20;99.90
50989;DHT22;37008;52.210;21.112;2023-12-14T06:46:28;2.20;99.90
50989;DHT22;37008;52.210;21.112;2023-12-14T06:48:54;2.20;99.90
50989;DHT22;37008;52.210;21.112;2023-12-14T06:51:21;2.20;99.90
50989;DHT22;37008;52.210;21.112;2023-12-14T06:53:47;2.20;99.90
50989;DHT22;37008;52.210;21.112;2023-12-14T06:56:13;2.20;99.90
50989;DHT22;37008;52.210;21.112;2023-12-14T06:58:43;2.10;99.90
50989;DHT22;37008;52.210;21.112;2023-12-14T07:01:15;2.20;99.90
50989;DHT22;37008;52.210;21.112;2023-12-14T07:03:42;2.20;99.90
50989;DHT22;37008;52.210;21.112;2023-12-14T07:06:12;2.20;99.90
50989;DHT22;37008;52.210;21.112;2023-12-14T07:08:39;2.10;99.90
50989;DHT22;37008;52.210;21.112;2023-12-14T07:11:05;2.10;99.90
50989;DHT22;37008;52.210;21.112;2023-12-14T07:13:30;2.10;99.90
50989;DHT22;37008;52.210;21.112;2023-12-14T07:15:56;2.10;99.90
50989;DHT22;37008;52.210;21.112;2023-12-14T07:18:22;2.10;99.90
50989;DHT22;37008;52.210;21.112;2023-12-14T07:20:48;2.00;99.90
50989;DHT22;37008;52.210;21.112;2023-12-14T07:23:13;2.10;99.90
50989;DHT22;37008;52.210;21.112;2023-12-14T07:25:39;2.10;99.90
50989;DHT22;37008;52.210;21.112;2023-12-14T07:28:04;2.10;99.90
50989;DHT22;37008;52.210;21.112;2023-12-14T07:30:30;2.10;99.90
50989;DHT22;37008;52.210;21.112;2023-12-14T07:32:56;2.10;99.90
50989;DHT22;37008;52.210;21.112;2023-12-14T07:35:21;2.10;99.90
50989;DHT22;37008;52.210;21.112;2023-12-14T07:37:48;2.10;99.90
50989;DHT22;37008;52.210;21.112;2023-12-14T07:40:14;2.10;99.90
50989;DHT22;37008;52.210;21.112;2023-12-14T07:42:40;2.00;99.90
50989;DHT22;37008;52.210;21.112;2023-12-14T07:45:06;2.00;99.90
50989;DHT22;37008;52.210;21.112;2023-12-14T07:47:33;2.00;99.90
50989;DHT22;37008;52.210;21.112;2023-12-14T07:49:59;2.00;99.90
50989;DHT22;37008;52.210;21.112;2023-12-14T07:52:25;2.00;99.90
50989;DHT22;37008;52.210;21.112;2023-12-14T07:54:50;2.00;99.90
50989;DHT22;37008;52.210;21.112;2023-12-14T07:57:16;2.10;99.90
50989;DHT22;37008;52.210;21.112;2023-12-14T07:59:42;2.00;99.90
50989;DHT22;37008;52.210;21.112;2023-12-14T08:02:08;2.10;99.90
50989;DHT22;37008;52.210;21.112;2023-12-14T08:04:34;2.00;99.90
50989;DHT22;37008;52.210;21.112;2023-12-14T08:06:59;2.10;99.90
50989;DHT22;37008;52.210;21.112;2023-12-14T08:09:25;2.10;99.90
50989;DHT22;37008;52.210;21.112;2023-12-14T08:11:50;2.10;99.90
50989;DHT22;37008;52.210;21.112;2023-12-14T08:14:17;2.00;99.90
50989;DHT22;37008;52.210;21.112;2023-12-14T08:16:43;2.10;99.90
50989;DHT22;37008;52.210;21.112;2023-12-14T08:19:09;2.10;99.90
50989;DHT22;37008;52.210;21.112;2023-12-14T08:21:34;2.10;99.90
50989;DHT22;37008;52.210;21.112;2023-12-14T08:24:00;2.00;99.90
50989;DHT22;37008;52.210;21.112;2023-12-14T08:26:26;2.00;99.90
50989;DHT22;37008;52.210;21.112;2023-12-14T08:28:51;2.00;99.90
50989;DHT22;37008;52.210;21.112;2023-12-14T08:31:17;2.00;99.90
50989;DHT22;37008;52.210;21.112;2023-12-14T08:33:42;2.00;99.90
50989;DHT22;37008;52.210;21.112;2023-12-14T08:36:08;2.60;99.90
50989;DHT22;37008;52.210;21.112;2023-12-14T08:38:34;2.10;99.90
50989;DHT22;37008;52.210;21.112;2023-12-14T08:40:59;2.20;99.90
50989;DHT22;37008;52.210;21.112;2023-12-14T08:43:26;2.10;99.90
50989;DHT22;37008;52.210;21.112;2023-12-14T08:45:52;2.60;99.90
50989;DHT22;37008;52.210;21.112;2023-12-14T08:48:18;2.10;99.90
50989;DHT22;37008;52.210;21.112;2023-12-14T08:50:44;2.20;99.90
50989;DHT22;37008;52.210;21.112;2023-12-14T08:53:11;2.20;99.90
50989;DHT22;37008;52.210;21.112;2023-12-14T08:55:36;2.20;99.90
50989;DHT22;37008;52.210;21.112;2023-12-14T08:58:02;2.30;99.90
50989;DHT22;37008;52.210;21.112;2023-12-14T09:00:28;2.20;99.90
50989;DHT22;37008;52.210;21.112;2023-12-14T09:02:53;2.10;99.90
50989;DHT22;37008;52.210;21.112;2023-12-14T09:05:19;2.20;99.90
50989;DHT22;37008;52.210;21.112;2023-12-14T09:07:46;2.20;99.90
50989;DHT22;37008;52.210;21.112;2023-12-14T09:10:12;2.20;99.90
50989;DHT22;37008;52.210;21.112;2023-12-14T09:12:38;2.20;99.90
50989;DHT22;37008;52.210;21.112;2023-12-14T09:15:04;2.20;99.90
50989;DHT22;37008;52.210;21.112;2023-12-14T09:17:30;2.20;99.90
50989;DHT22;37008;52.210;21.112;2023-12-14T09:19:59;2.20;99.90
50989;DHT22;37008;52.210;21.112;2023-12-14T09:22:25;2.20;99.90
50989;DHT22;37008;52.210;21.112;2023-12-14T09:24:51;2.20;99.90
50989;DHT22;37008;52.210;21.112;2023-12-14T09:27:17;2.30;99.90
50989;DHT22;37008;52.210;21.112;2023-12-14T09:29:42;2.20;99.90
50989;DHT22;37008;52.210;21.112;2023-12-14T09:32:08;2.20;99.90
50989;DHT22;37008;52.210;21.112;2023-12-14T09:34:34;2.20;99.90
50989;DHT22;37008;52.210;21.112;2023-12-14T09:37:00;2.10;99.90
50989;DHT22;37008;52.210;21.112;2023-12-14T09:39:25;2.10;99.90
50989;DHT22;37008;52.210;21.112;2023-12-14T09:42:02;2.10;99.90
50989;DHT22;37008;52.210;21.112;2023-12-14T09:44:30;2.10;99.90
50989;DHT22;37008;52.210;21.112;2023-12-14T09:46:59;2.10;99.90
50989;DHT22;37008;52.210;21.112;2023-12-14T09:49:26;2.10;99.90
50989;DHT22;37008;52.210;21.112;2023-12-14T09:51:55;2.40;99.90
50989;DHT22;37008;52.210;21.112;2023-12-14T09:54:22;2.20;99.90
50989;DHT22;37008;52.210;21.112;2023-12-14T09:56:48;2.30;99.90
50989;DHT22;37008;52.210;21.112;2023-12-14T09:59:14;2.20;99.90
50989;DHT22;37008;52.210;21.112;2023-12-14T10:01:40;2.30;99.90
50989;DHT22;37008;52.210;21.112;2023-12-14T10:04:17;2.40;99.90
50989;DHT22;37008;52.210;21.112;2023-12-14T10:06:45;2.40;99.90
50989;DHT22;37008;52.210;21.112;2023-12-14T10:09:11;2.40;99.90
50989;DHT22;37008;52.210;21.112;2023-12-14T10:11:44;2.40;99.90
50989;DHT22;37008;52.210;21.112;2023-12-14T10:14:24;2.40;99.90
50989;DHT22;37008;52.210;21.112;2023-12-14T10:16:51;2.50;99.90
50989;DHT22;37008;52.210;21.112;2023-12-14T10:19:19;2.50;99.90
50989;DHT22;37008;52.210;21.112;2023-12-14T10:21:49;2.50;99.90
50989;DHT22;37008;52.210;21.112;2023-12-14T10:24:16;2.60;99.90
50989;DHT22;37008;52.210;21.112;2023-12-14T10:26:42;2.60;99.90
50989;DHT22;37008;52.210;21.112;2023-12-14T10:29:09;2.60;99.90
50989;DHT22;37008;52.210;21.112;2023-12-14T10:31:36;2.70;99.90
50989;DHT22;37008;52.210;21.112;2023-12-14T10:34:05;2.70;99.90
50989;DHT22;37008;52.210;21.112;2023-12-14T10:36:31;2.80;99.90
50989;DHT22;37008;52.210;21.112;2023-12-14T10:39:00;2.70;99.90
50989;DHT22;37008;52.210;21.112;2023-12-14T10:41:26;2.70;99.90
50989;DHT22;37008;52.210;21.112;2023-12-14T10:43:55;2.70;99.90
50989;DHT22;37008;52.210;21.112;2023-12-14T10:46:25;2.70;99.90
50989;DHT22;37008;52.210;21.112;2023-12-14T10:48:51;2.60;99.90
50989;DHT22;37008;52.210;21.112;2023-12-14T10:51:19;2.60;99.90
50989;DHT22;37008;52.210;21.112;2023-12-14T10:53:45;2.60;99.90
50989;DHT22;37008;52.210;21.112;2023-12-14T10:56:20;2.60;99.90
50989;DHT22;37008;52.210;21.112;2023-12-14T10:58:53;2.50;99.90
50989;DHT22;37008;52.210;21.112;2023-12-14T11:01:20;2.50;99.90
50989;DHT22;37008;52.210;21.112;2023-12-14T11:03:48;2.60;99.90
50989;DHT22;37008;52.210;21.112;2023-12-14T11:08:54;2.60;99.90
50989;DHT22;37008;52.210;21.112;2023-12-14T11:11:21;2.60;99.90
50989;DHT22;37008;52.210;21.112;2023-12-14T11:13:52;2.60;99.90
50989;DHT22;37008;52.210;21.112;2023-12-14T11:16:22;2.60;99.90
50989;DHT22;37008;52.210;21.112;2023-12-14T11:18:48;2.60;99.90
50989;DHT22;37008;52.210;21.112;2023-12-14T11:21:25;2.50;99.90
50989;DHT22;37008;52.210;21.112;2023-12-14T11:23:50;2.50;99.90
50989;DHT22;37008;52.210;21.112;2023-12-14T11:26:21;2.50;99.90
50989;DHT22;37008;52.210;21.112;2023-12-14T11:28:50;2.50;99.90
50989;DHT22;37008;52.210;21.112;2023-12-14T11:31:16;2.50;99.90
50989;DHT22;37008;52.210;21.112;2023-12-14T11:33:42;2.50;99.90
50989;DHT22;37008;52.210;21.112;2023-12-14T11:36:11;2.50;99.90
50989;DHT22;37008;52.210;21.112;2023-12-14T11:38:37;2.50;99.90
50989;DHT22;37008;52.210;21.112;2023-12-14T11:41:03;2.40;99.90
50989;DHT22;37008;52.210;21.112;2023-12-14T11:43:29;2.40;99.90
50989;DHT22;37008;52.210;21.112;2023-12-14T11:45:54;2.40;99.90
50989;DHT22;37008;52.210;21.112;2023-12-14T11:48:24;2.50;99.90
50989;DHT22;37008;52.210;21.112;2023-12-14T11:50:49;2.50;99.90
50989;DHT22;37008;52.210;21.112;2023-12-14T11:53:15;2.50;99.90
50989;DHT22;37008;52.210;21.112;2023-12-14T11:55:42;2.50;99.90
50989;DHT22;37008;52.210;21.112;2023-12-14T11:58:08;2.50;99.90
50989;DHT22;37008;52.210;21.112;2023-12-14T12:00:34;2.50;99.90
50989;DHT22;37008;52.210;21.112;2023-12-14T12:03:20;2.50;99.90
50989;DHT22;37008;52.210;21.112;2023-12-14T12:05:47;2.50;99.90
50989;DHT22;37008;52.210;21.112;2023-12-14T12:08:14;2.40;99.90
50989;DHT22;37008;52.210;21.112;2023-12-14T12:10:41;2.40;99.90
50989;DHT22;37008;52.210;21.112;2023-12-14T12:13:11;2.40;99.90
50989;DHT22;37008;52.210;21.112;2023-12-14T12:15:37;2.40;99.90
50989;DHT22;37008;52.210;21.112;2023-12-14T12:18:05;2.40;99.90
50989;DHT22;37008;52.210;21.112;2023-12-14T12:20:31;2.40;99.90
50989;DHT22;37008;52.210;21.112;2023-12-14T12:22:58;2.40;99.90
50989;DHT22;37008;52.210;21.112;2023-12-14T12:25:23;2.40;99.90
50989;DHT22;37008;52.210;21.112;2023-12-14T12:27:49;2.40;99.90
50989;DHT22;37008;52.210;21.112;2023-12-14T12:30:15;2.40;99.90
50989;DHT22;37008;52.210;21.112;2023-12-14T12:32:41;2.30;99.90
50989;DHT22;37008;52.210;21.112;2023-12-14T12:35:07;2.30;99.90
50989;DHT22;37008;52.210;21.112;2023-12-14T12:37:34;2.30;99.90
50989;DHT22;37008;52.210;21.112;2023-12-14T12:39:59;2.30;99.90
50989;DHT22;37008;52.210;21.112;2023-12-14T12:42:25;2.30;99.90
50989;DHT22;37008;52.210;21.112;2023-12-14T12:44:51;2.30;99.90
50989;DHT22;37008;52.210;21.112;2023-12-14T12:47:17;2.30;99.90
50989;DHT22;37008;52.210;21.112;2023-12-14T12:49:43;2.30;99.90
50989;DHT22;37008;52.210;21.112;2023-12-14T12:52:09;2.30;99.90
50989;DHT22;37008;52.210;21.112;2023-12-14T12:54:35;2.20;99.90
50989;DHT22;37008;52.210;21.112;2023-12-14T12:57:01;2.20;99.90
50989;DHT22;37008;52.210;21.112;2023-12-14T12:59:26;2.20;99.90
50989;DHT22;37008;52.210;21.112;2023-12-14T13:01:53;2.20;99.90
50989;DHT22;37008;52.210;21.112;2023-12-14T13:04:22;2.10;99.90
50989;DHT22;37008;52.210;21.112;2023-12-14T13:06:49;2.10;99.90
50989;DHT22;37008;52.210;21.112;2023-12-14T13:09:18;2.10;99.90
50989;DHT22;37008;52.210;21.112;2023-12-14T13:11:47;2.10;99.90
50989;DHT22;37008;52.210;21.112;2023-12-14T13:14:12;2.10;99.90
50989;DHT22;37008;52.210;21.112;2023-12-14T13:16:40;2.20;99.90
50989;DHT22;37008;52.210;21.112;2023-12-14T13:19:06;2.20;99.90
50989;DHT22;37008;52.210;21.112;2023-12-14T13:21:32;2.20;99.90
50989;DHT22;37008;52.210;21.112;2023-12-14T13:24:02;2.20;99.90
50989;DHT22;37008;52.210;21.112;2023-12-14T13:26:28;2.20;99.90
50989;DHT22;37008;52.210;21.112;2023-12-14T13:28:54;2.10;99.90
50989;DHT22;37008;52.210;21.112;2023-12-14T13:31:20;2.10;99.90
50989;DHT22;37008;52.210;21.112;2023-12-14T13:33:46;2.10;99.90
50989;DHT22;37008;52.210;21.112;2023-12-14T13:36:13;2.10;99.90
50989;DHT22;37008;52.210;21.112;2023-12-14T13:38:38;2.10;99.90
50989;DHT22;37008;52.210;21.112;2023-12-14T13:41:04;2.00;99.90
50989;DHT22;37008;52.210;21.112;2023-12-14T13:43:31;2.00;99.90
50989;DHT22;37008;52.210;21.112;2023-12-14T13:45:56;2.00;99.90
50989;DHT22;37008;52.210;21.112;2023-12-14T13:48:26;2.00;99.90
50989;DHT22;37008;52.210;21.112;2023-12-14T13:50:52;2.00;99.90
50989;DHT22;37008;52.210;21.112;2023-12-14T13:53:18;2.00;99.90
50989;DHT22;37008;52.210;21.112;2023-12-14T13:55:44;2.00;99.90
50989;DHT22;37008;52.210;21.112;2023-12-14T13:58:10;2.00;99.90
50989;DHT22;37008;52.210;21.112;2023-12-14T14:00:36;2.00;99.90
50989;DHT22;37008;52.210;21.112;2023-12-14T14:03:02;2.00;99.90
50989;DHT22;37008;52.210;21.112;2023-12-14T14:05:29;2.00;99.90
50989;DHT22;37008;52.210;21.112;2023-12-14T14:07:55;2.00;99.90
50989;DHT22;37008;52.210;21.112;2023-12-14T14:10:21;2.00;99.90
50989;DHT22;37008;52.210;21.112;2023-12-14T14:12:46;2.00;99.90
50989;DHT22;37008;52.210;21.112;2023-12-14T14:15:12;2.00;99.90
50989;DHT22;37008;52.210;21.112;2023-12-14T14:17:38;2.00;99.90
50989;DHT22;37008;52.210;21.112;2023-12-14T14:20:05;2.00;99.90
50989;DHT22;37008;52.210;21.112;2023-12-14T14:22:32;2.00;99.90
50989;DHT22;37008;52.210;21.112;2023-12-14T14:24:57;2.00;99.90
50989;DHT22;37008;52.210;21.112;2023-12-14T14:27:23;2.00;99.90
50989;DHT22;37008;52.210;21.112;2023-12-14T14:29:51;2.00;99.90
50989;DHT22;37008;52.210;21.112;2023-12-14T14:32:22;2.00;99.90
50989;DHT22;37008;52.210;21.112;2023-12-14T14:34:47;2.00;99.90
50989;DHT22;37008;52.210;21.112;2023-12-14T14:37:13;2.10;99.90
50989;DHT22;37008;52.210;21.112;2023-12-14T14:39:40;2.00;99.90
50989;DHT22;37008;52.210;21.112;2023-12-14T14:42:09;2.00;99.90
50989;DHT22;37008;52.210;21.112;2023-12-14T14:44:34;2.00;99.90
50989;DHT22;37008;52.210;21.112;2023-12-14T14:47:06;2.10;99.90
50989;DHT22;37008;52.210;21.112;2023-12-14T14:49:32;2.20;99.90
50989;DHT22;37008;52.210;21.112;2023-12-14T14:51:57;2.10;99.90
50989;DHT22;37008;52.210;21.112;2023-12-14T14:54:23;2.10;99.90
50989;DHT22;37008;52.210;21.112;2023-12-14T14:56:49;2.10;99.90
50989;DHT22;37008;52.210;21.112;2023-12-14T14:59:15;2.10;99.90
50989;DHT22;37008;52.210;21.112;2023-12-14T15:01:46;2.10;99.90
50989;DHT22;37008;52.210;21.112;2023-12-14T15:04:12;2.10;99.90
50989;DHT22;37008;52.210;21.112;2023-12-14T15:06:38;2.10;99.90
50989;DHT22;37008;52.210;21.112;2023-12-14T15:09:05;2.30;99.90
50989;DHT22;37008;52.210;21.112;2023-12-14T15:11:33;2.10;99.90
50989;DHT22;37008;52.210;21.112;2023-12-14T15:13:58;2.10;99.90
50989;DHT22;37008;52.210;21.112;2023-12-14T15:16:24;2.10;99.90
50989;DHT22;37008;52.210;21.112;2023-12-14T15:18:52;2.10;99.90
50989;DHT22;37008;52.210;21.112;2023-12-14T15:21:17;2.10;99.90
50989;DHT22;37008;52.210;21.112;2023-12-14T15:23:43;2.20;99.90
50989;DHT22;37008;52.210;21.112;2023-12-14T15:26:12;2.10;99.90